createdAt,value
2023-03-20T00:06:18.854Z,3.10
2023-03-20T00:21:10.930Z,2.04
2023-03-20T00:36:06.370Z,2.89
2023-03-20T00:50:57.741Z,1.57
2023-03-20T01:05:48.225Z,1.94
2023-03-20T01:20:38.820Z,1.60
2023-03-20T01:35:30.288Z,1.74
2023-03-20T01:50:24.315Z,1.50
2023-03-20T02:05:18.449Z,2.50
2023-03-20T02:20:19.139Z,1.50
2023-03-20T02:35:35.493Z,2.02
2023-03-20T02:50:43.051Z,2.64
2023-03-20T03:05:37.767Z,3.67
2023-03-20T03:20:28.683Z,4.16
2023-03-20T03:35:20.405Z,4.44
2023-03-20T03:50:14.010Z,4.72
2023-03-20T04:05:08.380Z,4.67
2023-03-20T04:20:00.323Z,5.30
2023-03-20T04:34:50.967Z,5.49
2023-03-20T04:49:41.863Z,7.26
2023-03-20T05:04:32.632Z,7.77
2023-03-20T05:19:24.296Z,8.31
2023-03-20T05:34:15.382Z,8.80
2023-03-20T05:49:06.615Z,9.74
2023-03-20T06:03:58.133Z,8.28
2023-03-20T06:18:48.737Z,10.20
2023-03-20T06:33:40.180Z,9.86
2023-03-20T06:48:31.342Z,9.46
2023-03-20T07:03:21.997Z,9.67
2023-03-20T07:18:13.115Z,9.63
2023-03-20T07:33:04.295Z,8.16
2023-03-20T07:47:55.654Z,8.52
2023-03-20T08:02:48.620Z,7.73
2023-03-20T08:17:39.415Z,7.58
2023-03-20T08:32:31.988Z,7.37
2023-03-20T08:47:22.213Z,7.36
2023-03-20T09:02:13.700Z,6.87
2023-03-20T09:17:04.540Z,6.70
2023-03-20T09:31:54.829Z,6.06
2023-03-20T09:47:18.425Z,5.30
2023-03-20T10:02:06.903Z,4.17
2023-03-20T10:17:24.738Z,4.20
2023-03-20T10:32:35.249Z,3.57
2023-03-20T10:47:31.881Z,3.97
2023-03-20T11:02:24.004Z,3.69
2023-03-20T11:17:14.929Z,3.09
2023-03-20T11:32:07.470Z,3.07
2023-03-20T11:47:05.583Z,3.53
2023-03-20T12:02:03.578Z,3.17
2023-03-20T12:17:10.312Z,3.51
2023-03-20T12:47:57.620Z,3.03
2023-03-20T13:03:04.305Z,2.90
2023-03-20T13:18:08.264Z,3.31
2023-03-20T13:33:14.140Z,2.97
2023-03-20T13:48:30.467Z,2.93
2023-03-20T14:03:33.220Z,2.73
2023-03-20T14:18:29.425Z,2.50
2023-03-20T14:33:23.031Z,2.72
2023-03-20T14:48:30.479Z,2.51
2023-03-20T15:03:26.965Z,2.42
2023-03-20T15:18:17.876Z,2.44
2023-03-20T15:33:21.042Z,2.20
2023-03-20T15:48:17.453Z,2.40
2023-03-20T16:03:07.543Z,2.78
2023-03-20T16:17:57.975Z,2.80
2023-03-20T16:32:55.394Z,2.66
2023-03-20T16:47:49.036Z,2.89
2023-03-20T17:02:39.525Z,2.83
2023-03-20T17:17:30.463Z,2.94
2023-03-20T17:32:20.968Z,3.52
2023-03-20T17:47:17.411Z,3.13
2023-03-20T18:02:13.604Z,3.12
2023-03-20T18:17:05.627Z,2.80
2023-03-20T18:31:56.969Z,2.68
2023-03-20T18:46:48.196Z,2.70
2023-03-20T19:01:39.669Z,2.50
2023-03-20T19:16:33.228Z,3.73
2023-03-20T19:31:28.169Z,2.56
2023-03-20T20:16:26.361Z,2.82
2023-03-20T20:31:18.196Z,4.30
2023-03-20T20:46:11.317Z,4.62
2023-03-20T21:01:02.537Z,3.96
2023-03-20T21:16:16.221Z,3.93
2023-03-20T21:31:23.248Z,3.94
2023-03-20T21:46:40.205Z,3.73
2023-03-20T22:01:29.431Z,3.53
2023-03-20T22:16:18.871Z,3.69
2023-03-20T22:31:19.574Z,3.77
2023-03-20T23:00:12.848Z,4.68
2023-03-20T23:15:04.975Z,4.37
2023-03-20T23:29:56.589Z,4.68
2023-03-20T23:44:56.309Z,4.58
2023-03-20T23:59:38.652Z,4.56
